sensor_id;sensor_type;location;lat;lon;timestamp;P1;durP1;ratioP1;P2;durP2;ratioP2
61741;SDS011;47650;49.848;9.620;2022-11-20T00:00:54;47.03;;;29.92;;
61741;SDS011;47650;49.848;9.620;2022-11-20T00:03:20;46.92;;;30.13;;
61741;SDS011;47650;49.848;9.620;2022-11-20T00:05:46;46.80;;;30.17;;
61741;SDS011;47650;49.848;9.620;2022-11-20T00:08:11;47.80;;;28.98;;
61741;SDS011;47650;49.848;9.620;2022-11-20T00:10:38;47.67;;;28.45;;
61741;SDS011;47650;49.848;9.620;2022-11-20T00:13:04;46.13;;;26.88;;
61741;SDS011;47650;49.848;9.620;2022-11-20T00:15:30;42.17;;;28.90;;
61741;SDS011;47650;49.848;9.620;2022-11-20T00:17:56;44.22;;;28.55;;
61741;SDS011;47650;49.848;9.620;2022-11-20T00:20:23;43.35;;;28.95;;
61741;SDS011;47650;49.848;9.620;2022-11-20T00:22:49;45.88;;;29.77;;
61741;SDS011;47650;49.848;9.620;2022-11-20T00:25:17;45.50;;;29.13;;
61741;SDS011;47650;49.848;9.620;2022-11-20T00:27:43;46.63;;;29.10;;
61741;SDS011;47650;49.848;9.620;2022-11-20T00:30:08;49.78;;;31.05;;
61741;SDS011;47650;49.848;9.620;2022-11-20T00:32:34;49.70;;;30.42;;
61741;SDS011;47650;49.848;9.620;2022-11-20T00:34:59;58.33;;;31.98;;
61741;SDS011;47650;49.848;9.620;2022-11-20T00:37:26;57.35;;;32.22;;
61741;SDS011;47650;49.848;9.620;2022-11-20T00:39:51;59.33;;;31.75;;
61741;SDS011;47650;49.848;9.620;2022-11-20T00:42:17;45.85;;;29.27;;
61741;SDS011;47650;49.848;9.620;2022-11-20T00:44:43;51.05;;;31.17;;
61741;SDS011;47650;49.848;9.620;2022-11-20T00:47:09;48.22;;;30.20;;
61741;SDS011;47650;49.848;9.620;2022-11-20T00:49:35;51.78;;;30.23;;
61741;SDS011;47650;49.848;9.620;2022-11-20T00:52:03;51.45;;;30.77;;
61741;SDS011;47650;49.848;9.620;2022-11-20T00:54:28;43.28;;;28.90;;
61741;SDS011;47650;49.848;9.620;2022-11-20T00:56:53;39.67;;;27.83;;
61741;SDS011;47650;49.848;9.620;2022-11-20T00:59:19;45.97;;;29.75;;
61741;SDS011;47650;49.848;9.620;2022-11-20T01:01:44;44.03;;;30.00;;
61741;SDS011;47650;49.848;9.620;2022-11-20T01:04:10;52.92;;;30.40;;
61741;SDS011;47650;49.848;9.620;2022-11-20T01:06:35;59.88;;;31.95;;
61741;SDS011;47650;49.848;9.620;2022-11-20T01:09:11;47.58;;;29.95;;
61741;SDS011;47650;49.848;9.620;2022-11-20T01:11:39;45.63;;;29.75;;
61741;SDS011;47650;49.848;9.620;2022-11-20T01:14:08;41.38;;;28.08;;
61741;SDS011;47650;49.848;9.620;2022-11-20T01:16:37;47.72;;;29.45;;
61741;SDS011;47650;49.848;9.620;2022-11-20T01:19:05;41.92;;;28.02;;
61741;SDS011;47650;49.848;9.620;2022-11-20T01:21:35;49.50;;;30.35;;
61741;SDS011;47650;49.848;9.620;2022-11-20T01:24:02;52.15;;;32.28;;
61741;SDS011;47650;49.848;9.620;2022-11-20T01:26:30;50.15;;;30.67;;
61741;SDS011;47650;49.848;9.620;2022-11-20T01:29:02;46.70;;;30.20;;
61741;SDS011;47650;49.848;9.620;2022-11-20T01:31:29;44.92;;;29.35;;
61741;SDS011;47650;49.848;9.620;2022-11-20T01:34:04;43.30;;;28.20;;
61741;SDS011;47650;49.848;9.620;2022-11-20T01:36:32;42.92;;;29.08;;
61741;SDS011;47650;49.848;9.620;2022-11-20T01:38:59;43.92;;;28.45;;
61741;SDS011;47650;49.848;9.620;2022-11-20T01:41:27;43.53;;;28.52;;
61741;SDS011;47650;49.848;9.620;2022-11-20T01:44:17;48.15;;;30.95;;
61741;SDS011;47650;49.848;9.620;2022-11-20T01:46:55;47.33;;;29.83;;
61741;SDS011;47650;49.848;9.620;2022-11-20T01:52:01;44.80;;;29.20;;
61741;SDS011;47650;49.848;9.620;2022-11-20T01:54:38;41.85;;;28.05;;
61741;SDS011;47650;49.848;9.620;2022-11-20T01:57:12;47.42;;;30.00;;
61741;SDS011;47650;49.848;9.620;2022-11-20T01:59:44;45.83;;;30.00;;
61741;SDS011;47650;49.848;9.620;2022-11-20T02:02:12;50.72;;;30.42;;
61741;SDS011;47650;49.848;9.620;2022-11-20T02:04:38;49.28;;;31.80;;
61741;SDS011;47650;49.848;9.620;2022-11-20T02:07:04;49.00;;;30.13;;
61741;SDS011;47650;49.848;9.620;2022-11-20T02:09:31;63.83;;;33.30;;
61741;SDS011;47650;49.848;9.620;2022-11-20T02:11:56;62.92;;;33.30;;
61741;SDS011;47650;49.848;9.620;2022-11-20T02:14:24;58.30;;;32.65;;
61741;SDS011;47650;49.848;9.620;2022-11-20T02:16:50;50.08;;;31.05;;
61741;SDS011;47650;49.848;9.620;2022-11-20T02:22:03;57.30;;;33.08;;
61741;SDS011;47650;49.848;9.620;2022-11-20T02:24:39;66.78;;;35.05;;
61741;SDS011;47650;49.848;9.620;2022-11-20T02:27:07;78.63;;;37.05;;
61741;SDS011;47650;49.848;9.620;2022-11-20T02:29:47;79.75;;;39.70;;
61741;SDS011;47650;49.848;9.620;2022-11-20T02:32:22;83.30;;;38.63;;
61741;SDS011;47650;49.848;9.620;2022-11-20T02:34:47;76.72;;;37.10;;
61741;SDS011;47650;49.848;9.620;2022-11-20T02:37:13;103.65;;;42.50;;
61741;SDS011;47650;49.848;9.620;2022-11-20T02:39:39;82.57;;;40.60;;
61741;SDS011;47650;49.848;9.620;2022-11-20T02:42:05;87.00;;;41.17;;
61741;SDS011;47650;49.848;9.620;2022-11-20T02:44:32;102.53;;;43.05;;
61741;SDS011;47650;49.848;9.620;2022-11-20T02:46:58;127.35;;;45.60;;
61741;SDS011;47650;49.848;9.620;2022-11-20T02:49:25;88.32;;;40.65;;
61741;SDS011;47650;49.848;9.620;2022-11-20T02:51:50;99.75;;;43.88;;
61741;SDS011;47650;49.848;9.620;2022-11-20T02:54:16;90.85;;;40.20;;
61741;SDS011;47650;49.848;9.620;2022-11-20T02:56:41;90.25;;;40.10;;
61741;SDS011;47650;49.848;9.620;2022-11-20T02:59:08;101.28;;;43.30;;
61741;SDS011;47650;49.848;9.620;2022-11-20T03:01:34;102.32;;;43.25;;
61741;SDS011;47650;49.848;9.620;2022-11-20T03:03:59;101.47;;;44.40;;
61741;SDS011;47650;49.848;9.620;2022-11-20T03:06:30;102.57;;;44.50;;
61741;SDS011;47650;49.848;9.620;2022-11-20T03:08:57;119.93;;;43.42;;
61741;SDS011;47650;49.848;9.620;2022-11-20T03:11:23;100.90;;;41.42;;
61741;SDS011;47650;49.848;9.620;2022-11-20T03:13:55;124.88;;;46.25;;
61741;SDS011;47650;49.848;9.620;2022-11-20T03:16:22;119.95;;;45.28;;
61741;SDS011;47650;49.848;9.620;2022-11-20T03:18:56;114.32;;;46.08;;
61741;SDS011;47650;49.848;9.620;2022-11-20T03:23:49;111.93;;;41.50;;
61741;SDS011;47650;49.848;9.620;2022-11-20T03:26:19;116.10;;;45.10;;
61741;SDS011;47650;49.848;9.620;2022-11-20T03:28:47;112.97;;;43.53;;
61741;SDS011;47650;49.848;9.620;2022-11-20T03:31:21;131.32;;;46.28;;
61741;SDS011;47650;49.848;9.620;2022-11-20T03:33:49;116.65;;;44.20;;
61741;SDS011;47650;49.848;9.620;2022-11-20T03:36:15;94.75;;;40.00;;
61741;SDS011;47650;49.848;9.620;2022-11-20T03:38:42;101.93;;;43.05;;
61741;SDS011;47650;49.848;9.620;2022-11-20T03:41:09;128.15;;;46.53;;
61741;SDS011;47650;49.848;9.620;2022-11-20T03:43:39;103.32;;;42.63;;
61741;SDS011;47650;49.848;9.620;2022-11-20T03:46:05;119.10;;;44.70;;
61741;SDS011;47650;49.848;9.620;2022-11-20T03:48:31;103.90;;;42.47;;
61741;SDS011;47650;49.848;9.620;2022-11-20T03:53:37;118.97;;;43.25;;
61741;SDS011;47650;49.848;9.620;2022-11-20T03:56:04;111.57;;;42.42;;
61741;SDS011;47650;49.848;9.620;2022-11-20T03:58:32;103.35;;;42.53;;
61741;SDS011;47650;49.848;9.620;2022-11-20T04:01:10;113.10;;;44.15;;
61741;SDS011;47650;49.848;9.620;2022-11-20T04:03:37;103.93;;;43.15;;
61741;SDS011;47650;49.848;9.620;2022-11-20T04:06:09;101.45;;;41.08;;
61741;SDS011;47650;49.848;9.620;2022-11-20T04:08:39;121.82;;;45.65;;
61741;SDS011;47650;49.848;9.620;2022-11-20T04:11:08;110.00;;;43.50;;
61741;SDS011;47650;49.848;9.620;2022-11-20T04:13:37;136.13;;;47.40;;
61741;SDS011;47650;49.848;9.620;2022-11-20T04:16:02;122.63;;;44.63;;
61741;SDS011;47650;49.848;9.620;2022-11-20T04:18:29;120.72;;;47.00;;
61741;SDS011;47650;49.848;9.620;2022-11-20T04:20:55;104.20;;;42.80;;
61741;SDS011;47650;49.848;9.620;2022-11-20T04:23:22;94.25;;;39.58;;
61741;SDS011;47650;49.848;9.620;2022-11-20T04:25:47;97.55;;;41.45;;
61741;SDS011;47650;49.848;9.620;2022-11-20T04:28:13;120.45;;;44.50;;
61741;SDS011;47650;49.848;9.620;2022-11-20T04:30:38;121.85;;;45.60;;
61741;SDS011;47650;49.848;9.620;2022-11-20T04:33:03;123.45;;;47.22;;
61741;SDS011;47650;49.848;9.620;2022-11-20T04:35:29;109.00;;;44.30;;
61741;SDS011;47650;49.848;9.620;2022-11-20T04:37:55;115.22;;;46.10;;
61741;SDS011;47650;49.848;9.620;2022-11-20T04:40:21;132.20;;;45.20;;
61741;SDS011;47650;49.848;9.620;2022-11-20T04:42:46;122.50;;;43.78;;
61741;SDS011;47650;49.848;9.620;2022-11-20T04:45:12;148.57;;;48.33;;
61741;SDS011;47650;49.848;9.620;2022-11-20T04:47:37;161.98;;;50.55;;
61741;SDS011;47650;49.848;9.620;2022-11-20T04:50:03;145.10;;;47.97;;
61741;SDS011;47650;49.848;9.620;2022-11-20T04:54:57;126.95;;;47.63;;
61741;SDS011;47650;49.848;9.620;2022-11-20T04:57:23;131.13;;;46.38;;
61741;SDS011;47650;49.848;9.620;2022-11-20T04:59:48;120.80;;;46.05;;
61741;SDS011;47650;49.848;9.620;2022-11-20T05:02:13;119.60;;;45.50;;
61741;SDS011;47650;49.848;9.620;2022-11-20T05:04:40;112.53;;;44.75;;
61741;SDS011;47650;49.848;9.620;2022-11-20T05:07:05;108.13;;;45.05;;
61741;SDS011;47650;49.848;9.620;2022-11-20T05:09:30;106.50;;;45.13;;
61741;SDS011;47650;49.848;9.620;2022-11-20T05:11:56;107.97;;;42.75;;
61741;SDS011;47650;49.848;9.620;2022-11-20T05:14:21;104.38;;;44.17;;
61741;SDS011;47650;49.848;9.620;2022-11-20T05:16:47;105.25;;;43.90;;
61741;SDS011;47650;49.848;9.620;2022-11-20T05:19:12;110.43;;;44.13;;
61741;SDS011;47650;49.848;9.620;2022-11-20T05:21:41;111.93;;;44.60;;
61741;SDS011;47650;49.848;9.620;2022-11-20T05:24:09;122.80;;;45.92;;
61741;SDS011;47650;49.848;9.620;2022-11-20T05:26:34;109.47;;;44.28;;
61741;SDS011;47650;49.848;9.620;2022-11-20T05:29:06;134.43;;;47.10;;
61741;SDS011;47650;49.848;9.620;2022-11-20T05:31:31;112.45;;;46.05;;
61741;SDS011;47650;49.848;9.620;2022-11-20T05:33:57;118.05;;;45.45;;
61741;SDS011;47650;49.848;9.620;2022-11-20T05:36:22;107.18;;;44.25;;
61741;SDS011;47650;49.848;9.620;2022-11-20T05:38:49;108.38;;;44.40;;
61741;SDS011;47650;49.848;9.620;2022-11-20T05:41:15;105.78;;;44.25;;
61741;SDS011;47650;49.848;9.620;2022-11-20T05:43:43;104.40;;;45.08;;
61741;SDS011;47650;49.848;9.620;2022-11-20T05:46:10;108.18;;;43.35;;
61741;SDS011;47650;49.848;9.620;2022-11-20T05:48:39;109.95;;;44.72;;
61741;SDS011;47650;49.848;9.620;2022-11-20T05:51:08;114.63;;;45.30;;
61741;SDS011;47650;49.848;9.620;2022-11-20T05:53:36;109.75;;;45.00;;
61741;SDS011;47650;49.848;9.620;2022-11-20T05:56:05;109.32;;;42.97;;
61741;SDS011;47650;49.848;9.620;2022-11-20T05:58:33;138.55;;;45.78;;
61741;SDS011;47650;49.848;9.620;2022-11-20T06:01:12;112.95;;;45.28;;
61741;SDS011;47650;49.848;9.620;2022-11-20T06:03:46;109.20;;;45.80;;
61741;SDS011;47650;49.848;9.620;2022-11-20T06:06:13;113.57;;;44.10;;
61741;SDS011;47650;49.848;9.620;2022-11-20T06:08:42;108.25;;;43.05;;
61741;SDS011;47650;49.848;9.620;2022-11-20T06:11:13;114.20;;;44.53;;
61741;SDS011;47650;49.848;9.620;2022-11-20T06:13:39;104.70;;;42.28;;
61741;SDS011;47650;49.848;9.620;2022-11-20T06:16:13;122.15;;;44.78;;
61741;SDS011;47650;49.848;9.620;2022-11-20T06:18:42;155.02;;;50.10;;
61741;SDS011;47650;49.848;9.620;2022-11-20T06:21:08;135.82;;;47.83;;
61741;SDS011;47650;49.848;9.620;2022-11-20T06:23:35;136.88;;;48.10;;
61741;SDS011;47650;49.848;9.620;2022-11-20T06:26:05;113.72;;;44.17;;
61741;SDS011;47650;49.848;9.620;2022-11-20T06:28:32;112.25;;;45.15;;
61741;SDS011;47650;49.848;9.620;2022-11-20T06:30:58;134.70;;;47.65;;
61741;SDS011;47650;49.848;9.620;2022-11-20T06:33:26;138.45;;;50.10;;
61741;SDS011;47650;49.848;9.620;2022-11-20T06:35:58;118.35;;;45.95;;
61741;SDS011;47650;49.848;9.620;2022-11-20T06:38:25;160.50;;;49.88;;
61741;SDS011;47650;49.848;9.620;2022-11-20T06:40:52;118.00;;;46.42;;
61741;SDS011;47650;49.848;9.620;2022-11-20T06:43:19;123.47;;;46.97;;
61741;SDS011;47650;49.848;9.620;2022-11-20T06:45:57;167.35;;;52.65;;
61741;SDS011;47650;49.848;9.620;2022-11-20T06:48:23;141.70;;;47.30;;
61741;SDS011;47650;49.848;9.620;2022-11-20T06:50:56;125.47;;;48.00;;
61741;SDS011;47650;49.848;9.620;2022-11-20T06:53:22;127.88;;;46.42;;
61741;SDS011;47650;49.848;9.620;2022-11-20T06:55:48;132.45;;;46.58;;
61741;SDS011;47650;49.848;9.620;2022-11-20T06:58:15;126.70;;;46.10;;
61741;SDS011;47650;49.848;9.620;2022-11-20T07:00:41;149.82;;;49.35;;
61741;SDS011;47650;49.848;9.620;2022-11-20T07:03:13;133.98;;;46.30;;
61741;SDS011;47650;49.848;9.620;2022-11-20T07:05:39;127.85;;;45.97;;
61741;SDS011;47650;49.848;9.620;2022-11-20T07:08:05;142.55;;;46.63;;
61741;SDS011;47650;49.848;9.620;2022-11-20T07:10:32;105.80;;;45.10;;
61741;SDS011;47650;49.848;9.620;2022-11-20T07:12:57;118.38;;;44.97;;
61741;SDS011;47650;49.848;9.620;2022-11-20T07:15:24;101.72;;;42.65;;
61741;SDS011;47650;49.848;9.620;2022-11-20T07:17:55;109.82;;;43.92;;
61741;SDS011;47650;49.848;9.620;2022-11-20T07:20:23;176.88;;;47.83;;
61741;SDS011;47650;49.848;9.620;2022-11-20T07:22:53;149.45;;;47.85;;
61741;SDS011;47650;49.848;9.620;2022-11-20T07:25:20;108.03;;;38.92;;
61741;SDS011;47650;49.848;9.620;2022-11-20T07:27:50;148.30;;;46.13;;
61741;SDS011;47650;49.848;9.620;2022-11-20T07:30:16;126.20;;;44.22;;
61741;SDS011;47650;49.848;9.620;2022-11-20T07:32:41;128.73;;;44.33;;
61741;SDS011;47650;49.848;9.620;2022-11-20T07:35:07;129.45;;;44.17;;
61741;SDS011;47650;49.848;9.620;2022-11-20T07:37:35;132.90;;;45.08;;
61741;SDS011;47650;49.848;9.620;2022-11-20T07:40:01;148.73;;;45.22;;
61741;SDS011;47650;49.848;9.620;2022-11-20T07:42:27;123.25;;;42.65;;
61741;SDS011;47650;49.848;9.620;2022-11-20T07:45:04;147.65;;;45.88;;
61741;SDS011;47650;49.848;9.620;2022-11-20T07:47:34;129.82;;;43.70;;
61741;SDS011;47650;49.848;9.620;2022-11-20T07:50:02;126.07;;;43.03;;
61741;SDS011;47650;49.848;9.620;2022-11-20T07:52:28;143.48;;;45.97;;
61741;SDS011;47650;49.848;9.620;2022-11-20T07:54:53;156.73;;;45.53;;
61741;SDS011;47650;49.848;9.620;2022-11-20T07:57:20;141.07;;;44.50;;
61741;SDS011;47650;49.848;9.620;2022-11-20T07:59:55;162.35;;;43.72;;
61741;SDS011;47650;49.848;9.620;2022-11-20T08:02:22;134.63;;;42.28;;
61741;SDS011;47650;49.848;9.620;2022-11-20T08:04:49;156.27;;;46.60;;
61741;SDS011;47650;49.848;9.620;2022-11-20T08:07:19;135.90;;;42.72;;
61741;SDS011;47650;49.848;9.620;2022-11-20T08:09:44;147.73;;;45.97;;
61741;SDS011;47650;49.848;9.620;2022-11-20T08:12:20;142.32;;;44.85;;
61741;SDS011;47650;49.848;9.620;2022-11-20T08:15:05;157.55;;;44.58;;
61741;SDS011;47650;49.848;9.620;2022-11-20T08:17:30;147.13;;;44.70;;
61741;SDS011;47650;49.848;9.620;2022-11-20T08:19:58;138.93;;;43.97;;
61741;SDS011;47650;49.848;9.620;2022-11-20T08:22:23;123.38;;;41.67;;
61741;SDS011;47650;49.848;9.620;2022-11-20T08:24:54;132.93;;;42.40;;
61741;SDS011;47650;49.848;9.620;2022-11-20T08:27:22;119.38;;;41.05;;
61741;SDS011;47650;49.848;9.620;2022-11-20T08:29:47;119.80;;;42.58;;
61741;SDS011;47650;49.848;9.620;2022-11-20T08:32:12;117.20;;;44.80;;
61741;SDS011;47650;49.848;9.620;2022-11-20T08:34:40;135.52;;;47.08;;
61741;SDS011;47650;49.848;9.620;2022-11-20T08:37:05;101.18;;;43.92;;
61741;SDS011;47650;49.848;9.620;2022-11-20T08:39:30;108.93;;;42.10;;
61741;SDS011;47650;49.848;9.620;2022-11-20T08:41:56;190.20;;;103.95;;
61741;SDS011;47650;49.848;9.620;2022-11-20T08:44:28;94.03;;;45.40;;
61741;SDS011;47650;49.848;9.620;2022-11-20T08:46:54;86.63;;;38.30;;
61741;SDS011;47650;49.848;9.620;2022-11-20T08:49:27;80.53;;;35.75;;
61741;SDS011;47650;49.848;9.620;2022-11-20T08:51:52;82.20;;;37.40;;
61741;SDS011;47650;49.848;9.620;2022-11-20T08:54:19;95.72;;;41.83;;
61741;SDS011;47650;49.848;9.620;2022-11-20T08:56:53;93.35;;;36.83;;
61741;SDS011;47650;49.848;9.620;2022-11-20T08:59:24;82.63;;;35.22;;
61741;SDS011;47650;49.848;9.620;2022-11-20T09:01:52;85.57;;;34.25;;
61741;SDS011;47650;49.848;9.620;2022-11-20T09:04:19;78.55;;;32.72;;
61741;SDS011;47650;49.848;9.620;2022-11-20T09:06:45;69.75;;;28.20;;
61741;SDS011;47650;49.848;9.620;2022-11-20T09:09:12;78.10;;;32.90;;
61741;SDS011;47650;49.848;9.620;2022-11-20T09:11:37;87.07;;;34.33;;
61741;SDS011;47650;49.848;9.620;2022-11-20T09:14:03;92.53;;;35.88;;
61741;SDS011;47650;49.848;9.620;2022-11-20T09:16:31;85.30;;;32.95;;
61741;SDS011;47650;49.848;9.620;2022-11-20T09:18:57;95.95;;;34.67;;
61741;SDS011;47650;49.848;9.620;2022-11-20T09:21:22;95.68;;;36.47;;
61741;SDS011;47650;49.848;9.620;2022-11-20T09:23:49;98.82;;;35.65;;
61741;SDS011;47650;49.848;9.620;2022-11-20T09:26:15;94.93;;;35.72;;
61741;SDS011;47650;49.848;9.620;2022-11-20T09:28:54;103.28;;;38.85;;
61741;SDS011;47650;49.848;9.620;2022-11-20T09:31:24;90.13;;;36.15;;
61741;SDS011;47650;49.848;9.620;2022-11-20T09:33:57;88.40;;;36.30;;
61741;SDS011;47650;49.848;9.620;2022-11-20T09:36:23;92.25;;;37.28;;
61741;SDS011;47650;49.848;9.620;2022-11-20T09:38:49;83.00;;;34.95;;
61741;SDS011;47650;49.848;9.620;2022-11-20T09:44:24;85.18;;;36.33;;
61741;SDS011;47650;49.848;9.620;2022-11-20T09:46:55;70.57;;;31.58;;
61741;SDS011;47650;49.848;9.620;2022-11-20T09:55:20;83.20;;;33.45;;
61741;SDS011;47650;49.848;9.620;2022-11-20T09:57:47;70.63;;;32.65;;
61741;SDS011;47650;49.848;9.620;2022-11-20T10:00:16;56.83;;;28.00;;
61741;SDS011;47650;49.848;9.620;2022-11-20T10:13:35;18.25;;;16.35;;
61741;SDS011;47650;49.848;9.620;2022-11-20T10:24:56;16.45;;;14.85;;
61741;SDS011;47650;49.848;9.620;2022-11-20T10:32:38;14.93;;;13.48;;
61741;SDS011;47650;49.848;9.620;2022-11-20T10:37:49;16.60;;;14.35;;
61741;SDS011;47650;49.848;9.620;2022-11-20T10:40:35;17.27;;;15.48;;
61741;SDS011;47650;49.848;9.620;2022-11-20T10:43:13;15.75;;;14.15;;
61741;SDS011;47650;49.848;9.620;2022-11-20T10:45:46;18.05;;;15.77;;
61741;SDS011;47650;49.848;9.620;2022-11-20T10:48:27;18.50;;;15.38;;
61741;SDS011;47650;49.848;9.620;2022-11-20T10:53:45;16.70;;;13.20;;
61741;SDS011;47650;49.848;9.620;2022-11-20T10:56:22;20.70;;;16.13;;
61741;SDS011;47650;49.848;9.620;2022-11-20T10:59:27;17.57;;;14.37;;
61741;SDS011;47650;49.848;9.620;2022-11-20T11:02:24;18.55;;;13.82;;
61741;SDS011;47650;49.848;9.620;2022-11-20T11:04:53;21.50;;;14.52;;
61741;SDS011;47650;49.848;9.620;2022-11-20T11:07:23;23.05;;;16.33;;
61741;SDS011;47650;49.848;9.620;2022-11-20T11:09:55;25.27;;;17.30;;
61741;SDS011;47650;49.848;9.620;2022-11-20T11:12:22;22.42;;;16.48;;
61741;SDS011;47650;49.848;9.620;2022-11-20T11:14:54;21.83;;;15.82;;
61741;SDS011;47650;49.848;9.620;2022-11-20T11:17:25;25.35;;;16.92;;
61741;SDS011;47650;49.848;9.620;2022-11-20T11:22:46;25.85;;;18.23;;
61741;SDS011;47650;49.848;9.620;2022-11-20T11:27:47;25.20;;;17.80;;
61741;SDS011;47650;49.848;9.620;2022-11-20T11:30:15;28.58;;;19.30;;
61741;SDS011;47650;49.848;9.620;2022-11-20T11:32:43;27.05;;;19.75;;
61741;SDS011;47650;49.848;9.620;2022-11-20T11:35:27;29.35;;;19.33;;
61741;SDS011;47650;49.848;9.620;2022-11-20T11:38:06;29.50;;;20.85;;
61741;SDS011;47650;49.848;9.620;2022-11-20T11:40:37;30.77;;;19.27;;
61741;SDS011;47650;49.848;9.620;2022-11-20T11:43:15;25.80;;;18.15;;
61741;SDS011;47650;49.848;9.620;2022-11-20T11:51:41;28.50;;;19.15;;
61741;SDS011;47650;49.848;9.620;2022-11-20T11:54:24;31.08;;;19.95;;
61741;SDS011;47650;49.848;9.620;2022-11-20T11:56:58;25.92;;;17.77;;
61741;SDS011;47650;49.848;9.620;2022-11-20T11:59:39;24.52;;;16.92;;
61741;SDS011;47650;49.848;9.620;2022-11-20T12:02:22;25.80;;;17.08;;
61741;SDS011;47650;49.848;9.620;2022-11-20T12:04:53;26.23;;;18.23;;
61741;SDS011;47650;49.848;9.620;2022-11-20T12:07:56;27.65;;;18.27;;
61741;SDS011;47650;49.848;9.620;2022-11-20T12:10:20;28.08;;;19.17;;
61741;SDS011;47650;49.848;9.620;2022-11-20T12:13:15;22.70;;;16.40;;
61741;SDS011;47650;49.848;9.620;2022-11-20T12:15:48;26.80;;;17.30;;
61741;SDS011;47650;49.848;9.620;2022-11-20T12:18:15;28.70;;;18.55;;
61741;SDS011;47650;49.848;9.620;2022-11-20T12:21:06;24.42;;;16.70;;
61741;SDS011;47650;49.848;9.620;2022-11-20T12:24:03;22.25;;;16.73;;
61741;SDS011;47650;49.848;9.620;2022-11-20T12:26:52;24.67;;;17.83;;
61741;SDS011;47650;49.848;9.620;2022-11-20T12:44:06;22.98;;;16.20;;
61741;SDS011;47650;49.848;9.620;2022-11-20T12:55:31;20.35;;;14.27;;
61741;SDS011;47650;49.848;9.620;2022-11-20T12:58:17;21.13;;;13.80;;
61741;SDS011;47650;49.848;9.620;2022-11-20T13:01:00;21.70;;;14.88;;
61741;SDS011;47650;49.848;9.620;2022-11-20T13:03:38;25.48;;;18.35;;
61741;SDS011;47650;49.848;9.620;2022-11-20T13:06:16;27.13;;;18.55;;
61741;SDS011;47650;49.848;9.620;2022-11-20T13:19:22;32.35;;;20.83;;
61741;SDS011;47650;49.848;9.620;2022-11-20T13:21:48;20.60;;;15.68;;
61741;SDS011;47650;49.848;9.620;2022-11-20T13:24:22;21.30;;;16.60;;
61741;SDS011;47650;49.848;9.620;2022-11-20T13:29:28;14.40;;;11.70;;
61741;SDS011;47650;49.848;9.620;2022-11-20T13:32:06;15.23;;;11.77;;
61741;SDS011;47650;49.848;9.620;2022-11-20T13:37:24;16.88;;;11.52;;
61741;SDS011;47650;49.848;9.620;2022-11-20T13:39:52;16.08;;;12.13;;
61741;SDS011;47650;49.848;9.620;2022-11-20T13:44:47;69.22;;;43.05;;
61741;SDS011;47650;49.848;9.620;2022-11-20T13:47:25;23.98;;;17.50;;
61741;SDS011;47650;49.848;9.620;2022-11-20T13:49:52;26.73;;;19.08;;
61741;SDS011;47650;49.848;9.620;2022-11-20T14:00:29;20.30;;;15.10;;
61741;SDS011;47650;49.848;9.620;2022-11-20T14:02:59;18.50;;;15.73;;
61741;SDS011;47650;49.848;9.620;2022-11-20T14:05:38;30.48;;;18.60;;
61741;SDS011;47650;49.848;9.620;2022-11-20T14:08:23;28.35;;;18.40;;
61741;SDS011;47650;49.848;9.620;2022-11-20T14:11:01;36.38;;;19.60;;
61741;SDS011;47650;49.848;9.620;2022-11-20T14:13:31;33.13;;;18.85;;
61741;SDS011;47650;49.848;9.620;2022-11-20T14:15:56;44.85;;;23.83;;
61741;SDS011;47650;49.848;9.620;2022-11-20T14:18:25;49.53;;;25.25;;
61741;SDS011;47650;49.848;9.620;2022-11-20T14:20:52;56.42;;;28.85;;
61741;SDS011;47650;49.848;9.620;2022-11-20T14:23:24;61.75;;;31.90;;
61741;SDS011;47650;49.848;9.620;2022-11-20T14:25:56;62.33;;;30.08;;
61741;SDS011;47650;49.848;9.620;2022-11-20T14:28:29;75.90;;;33.92;;
61741;SDS011;47650;49.848;9.620;2022-11-20T14:30:56;74.38;;;35.30;;
61741;SDS011;47650;49.848;9.620;2022-11-20T14:33:22;70.93;;;33.65;;
61741;SDS011;47650;49.848;9.620;2022-11-20T14:35:53;70.03;;;34.60;;
61741;SDS011;47650;49.848;9.620;2022-11-20T14:41:15;53.55;;;27.27;;
61741;SDS011;47650;49.848;9.620;2022-11-20T14:43:47;61.05;;;28.23;;
61741;SDS011;47650;49.848;9.620;2022-11-20T14:46:17;53.22;;;28.80;;
61741;SDS011;47650;49.848;9.620;2022-11-20T14:48:44;48.55;;;26.55;;
61741;SDS011;47650;49.848;9.620;2022-11-20T14:54:15;50.13;;;28.13;;
61741;SDS011;47650;49.848;9.620;2022-11-20T14:57:01;70.05;;;37.25;;
61741;SDS011;47650;49.848;9.620;2022-11-20T14:59:33;58.88;;;30.80;;
61741;SDS011;47650;49.848;9.620;2022-11-20T15:02:02;66.03;;;33.05;;
61741;SDS011;47650;49.848;9.620;2022-11-20T15:04:30;56.60;;;28.02;;
61741;SDS011;47650;49.848;9.620;2022-11-20T15:06:58;62.30;;;32.03;;
61741;SDS011;47650;49.848;9.620;2022-11-20T15:09:24;48.97;;;28.13;;
61741;SDS011;47650;49.848;9.620;2022-11-20T15:11:52;81.40;;;39.53;;
61741;SDS011;47650;49.848;9.620;2022-11-20T15:14:26;84.60;;;39.33;;
61741;SDS011;47650;49.848;9.620;2022-11-20T15:16:53;82.35;;;40.65;;
61741;SDS011;47650;49.848;9.620;2022-11-20T15:19:23;159.82;;;63.17;;
61741;SDS011;47650;49.848;9.620;2022-11-20T15:21:50;116.82;;;53.20;;
61741;SDS011;47650;49.848;9.620;2022-11-20T15:24:18;119.40;;;52.00;;
61741;SDS011;47650;49.848;9.620;2022-11-20T15:26:45;54.22;;;27.90;;
61741;SDS011;47650;49.848;9.620;2022-11-20T15:29:11;63.80;;;32.92;;
61741;SDS011;47650;49.848;9.620;2022-11-20T15:31:44;59.80;;;31.85;;
61741;SDS011;47650;49.848;9.620;2022-11-20T15:34:11;64.70;;;33.88;;
61741;SDS011;47650;49.848;9.620;2022-11-20T15:36:41;116.53;;;50.40;;
61741;SDS011;47650;49.848;9.620;2022-11-20T15:39:07;174.13;;;67.13;;
61741;SDS011;47650;49.848;9.620;2022-11-20T15:41:34;171.63;;;67.53;;
61741;SDS011;47650;49.848;9.620;2022-11-20T15:44:00;157.98;;;65.40;;
61741;SDS011;47650;49.848;9.620;2022-11-20T15:46:26;153.25;;;64.65;;
61741;SDS011;47650;49.848;9.620;2022-11-20T15:48:58;155.05;;;63.25;;
61741;SDS011;47650;49.848;9.620;2022-11-20T15:51:33;140.15;;;58.08;;
61741;SDS011;47650;49.848;9.620;2022-11-20T15:54:00;172.07;;;66.80;;
61741;SDS011;47650;49.848;9.620;2022-11-20T15:56:29;123.55;;;54.17;;
61741;SDS011;47650;49.848;9.620;2022-11-20T15:58:55;108.43;;;49.17;;
61741;SDS011;47650;49.848;9.620;2022-11-20T16:01:22;115.63;;;52.45;;
61741;SDS011;47650;49.848;9.620;2022-11-20T16:03:47;100.95;;;48.85;;
61741;SDS011;47650;49.848;9.620;2022-11-20T16:06:13;113.40;;;51.42;;
61741;SDS011;47650;49.848;9.620;2022-11-20T16:08:41;154.25;;;60.97;;
61741;SDS011;47650;49.848;9.620;2022-11-20T16:11:06;159.57;;;63.45;;
61741;SDS011;47650;49.848;9.620;2022-11-20T16:13:33;137.55;;;57.38;;
61741;SDS011;47650;49.848;9.620;2022-11-20T16:16:21;107.07;;;52.17;;
61741;SDS011;47650;49.848;9.620;2022-11-20T16:18:53;121.97;;;52.25;;
61741;SDS011;47650;49.848;9.620;2022-11-20T16:21:18;95.70;;;48.85;;
61741;SDS011;47650;49.848;9.620;2022-11-20T16:23:44;117.70;;;52.78;;
61741;SDS011;47650;49.848;9.620;2022-11-20T16:26:15;118.43;;;49.13;;
61741;SDS011;47650;49.848;9.620;2022-11-20T16:28:42;93.18;;;47.13;;